Agawam, Massachusetts
Current Conditions -  °F | °C
As of 1:01 PM on Sunday 21 Dec 2014 (Local Time) from KBAF Reporting Station
Haze Haze  
Wind Chill: 27°   Ceiling: 2000
Heat Index: 33°   Visibility: 4mi
Dew Point: 29°   Wind: 7mph
Humidity: 85%   Direction: 360°N
Pressure: 30.29"   Gusts: NA
Location:  42.07°N, 72.61°W
Report Text: KBAF 211801Z 36006KT 4SM BR SCT009 OVC020 01/M02 A3029 RMK AO2 SNE1759 P0000 T00061017
Loading
Personal Weather Stations






























Interactive Weather Map New forecast layout! Learn more

10-Day Weather Forecast

Advertisements
Track Severe Weather on mobile